createdAt,value
2019-03-13T00:00:26.058Z,0
2019-03-13T00:01:28.509Z,0
2019-03-13T00:02:26.004Z,0
2019-03-13T00:03:25.973Z,0
2019-03-13T00:04:25.948Z,0
2019-03-13T00:05:25.910Z,0
2019-03-13T00:06:25.870Z,0
2019-03-13T00:07:25.838Z,0
2019-03-13T00:08:25.582Z,0
2019-03-13T00:09:25.787Z,0
2019-03-13T00:10:25.745Z,0
2019-03-13T00:11:25.724Z,0
2019-03-13T00:12:25.697Z,0
2019-03-13T00:13:25.782Z,0
2019-03-13T00:14:25.631Z,0
2019-03-13T00:15:25.364Z,0
2019-03-13T00:16:25.580Z,0
2019-03-13T00:17:25.554Z,0
2019-03-13T00:18:25.499Z,0
2019-03-13T00:19:25.473Z,0
2019-03-13T00:20:25.447Z,0
2019-03-13T00:21:25.413Z,0
2019-03-13T00:22:25.393Z,0
2019-03-13T00:23:25.351Z,0
2019-03-13T00:24:25.364Z,0
2019-03-13T00:25:25.290Z,0
2019-03-13T00:26:25.260Z,0
2019-03-13T00:27:25.316Z,0
2019-03-13T00:28:25.296Z,0
2019-03-13T00:29:25.166Z,0
2019-03-13T00:30:25.144Z,0
2019-03-13T00:31:25.096Z,0
2019-03-13T00:32:25.088Z,0
2019-03-13T00:33:25.042Z,0
2019-03-13T00:34:25.007Z,0
2019-03-13T00:35:24.971Z,0
2019-03-13T00:36:24.947Z,0
2019-03-13T00:37:24.913Z,0
2019-03-13T00:38:24.893Z,0
2019-03-13T00:39:24.854Z,0
2019-03-13T00:40:24.908Z,0
2019-03-13T00:41:24.889Z,0
2019-03-13T00:42:24.757Z,0
2019-03-13T00:43:24.728Z,0
2019-03-13T00:44:24.699Z,0
2019-03-13T00:45:24.673Z,0
2019-03-13T00:46:24.639Z,0
2019-03-13T00:47:24.619Z,0
2019-03-13T00:48:24.637Z,0
2019-03-13T00:49:24.573Z,0
2019-03-13T00:50:24.526Z,0
2019-03-13T00:51:24.512Z,0
2019-03-13T00:52:24.461Z,0
2019-03-13T00:53:24.414Z,0
2019-03-13T00:54:24.387Z,0
2019-03-13T00:55:24.372Z,0
2019-03-13T00:56:24.354Z,0
2019-03-13T00:57:24.299Z,0
2019-03-13T00:58:27.801Z,0
2019-03-13T00:59:24.237Z,0
2019-03-13T01:00:24.209Z,0
2019-03-13T01:01:24.178Z,0
2019-03-13T01:02:23.897Z,0
2019-03-13T01:03:24.109Z,0
2019-03-13T01:04:24.079Z,0
2019-03-13T01:05:24.051Z,0
2019-03-13T01:06:24.061Z,0
2019-03-13T01:07:23.986Z,0
2019-03-13T01:08:23.958Z,0
2019-03-13T01:09:23.927Z,0
2019-03-13T01:10:23.905Z,0
2019-03-13T01:11:26.911Z,0
2019-03-13T01:12:23.831Z,0
2019-03-13T01:13:23.829Z,0
2019-03-13T01:14:23.802Z,0
2019-03-13T01:15:23.740Z,0
2019-03-13T01:16:23.714Z,0
2019-03-13T01:17:23.675Z,0
2019-03-13T01:18:23.654Z,0
2019-03-13T01:19:23.625Z,0
2019-03-13T01:20:23.590Z,0
2019-03-13T01:21:23.557Z,0
2019-03-13T01:22:23.527Z,0
2019-03-13T01:23:23.488Z,0
2019-03-13T01:24:23.476Z,0
2019-03-13T01:25:23.426Z,0
2019-03-13T01:26:23.413Z,0
2019-03-13T01:27:23.366Z,0
2019-03-13T01:28:23.476Z,0
2019-03-13T01:29:23.312Z,0
2019-03-13T01:30:23.278Z,0
2019-03-13T01:31:23.255Z,0
2019-03-13T01:32:23.214Z,0
2019-03-13T01:33:23.189Z,0
2019-03-13T01:34:23.150Z,0
2019-03-13T01:35:22.882Z,0
2019-03-13T01:36:23.138Z,0
2019-03-13T01:37:23.061Z,0
2019-03-13T01:38:23.030Z,0
2019-03-13T01:39:23.003Z,0
2019-03-13T01:40:22.964Z,0
2019-03-13T01:41:22.937Z,0
2019-03-13T01:42:22.908Z,0
2019-03-13T01:43:22.932Z,0
2019-03-13T01:44:22.842Z,0
2019-03-13T01:45:22.828Z,0
2019-03-13T01:46:22.776Z,0
2019-03-13T01:47:22.754Z,0
2019-03-13T01:48:22.727Z,0
2019-03-13T01:49:22.694Z,0
2019-03-13T01:50:22.768Z,0
2019-03-13T01:51:22.623Z,0
2019-03-13T01:52:22.598Z,0
2019-03-13T01:53:22.574Z,0
2019-03-13T01:54:22.530Z,0
2019-03-13T01:55:22.500Z,0
2019-03-13T01:56:22.468Z,0
2019-03-13T01:57:22.454Z,0
2019-03-13T01:58:22.414Z,0
2019-03-13T01:59:22.425Z,0
2019-03-13T02:00:22.352Z,0
2019-03-13T02:01:22.317Z,0
2019-03-13T02:02:22.288Z,0
2019-03-13T02:03:22.264Z,0
2019-03-13T02:04:22.217Z,0
2019-03-13T02:05:22.212Z,0
2019-03-13T02:06:22.162Z,0
2019-03-13T02:07:22.132Z,0
2019-03-13T02:08:22.100Z,0
2019-03-13T02:09:22.069Z,0
2019-03-13T02:10:22.062Z,0
2019-03-13T02:11:22.005Z,0
2019-03-13T02:12:21.978Z,0
2019-03-13T02:13:21.943Z,0
2019-03-13T02:14:22.146Z,0
2019-03-13T02:15:21.883Z,0
2019-03-13T02:16:21.852Z,0
2019-03-13T02:17:21.814Z,0
2019-03-13T02:18:21.847Z,0
2019-03-13T02:19:21.754Z,0
2019-03-13T02:20:21.722Z,0
2019-03-13T02:21:21.453Z,0
2019-03-13T02:22:21.658Z,0
2019-03-13T02:23:21.626Z,0
2019-03-13T02:24:21.620Z,0
2019-03-13T02:25:21.583Z,0
2019-03-13T02:26:21.535Z,0
2019-03-13T02:27:21.505Z,0
2019-03-13T02:28:21.469Z,0
2019-03-13T02:29:21.443Z,0
2019-03-13T02:30:21.451Z,0
2019-03-13T02:31:21.404Z,0
2019-03-13T02:32:21.367Z,0
2019-03-13T02:33:21.338Z,0
2019-03-13T02:34:21.338Z,0
2019-03-13T02:35:21.290Z,0
2019-03-13T02:36:21.245Z,0
2019-03-13T02:37:21.218Z,0
2019-03-13T02:38:21.176Z,0
2019-03-13T02:39:21.143Z,0
2019-03-13T02:40:21.133Z,0
2019-03-13T02:41:21.083Z,0
2019-03-13T02:42:21.050Z,0
2019-03-13T02:43:21.052Z,0
2019-03-13T02:44:20.993Z,0
2019-03-13T02:45:20.970Z,0
2019-03-13T02:46:21.060Z,0
2019-03-13T02:47:23.905Z,0
2019-03-13T02:48:20.883Z,0
2019-03-13T02:49:20.863Z,0
2019-03-13T02:50:20.869Z,0
2019-03-13T02:51:20.773Z,0
2019-03-13T02:52:20.730Z,0
2019-03-13T02:53:20.714Z,0
2019-03-13T02:54:20.677Z,0
2019-03-13T02:55:20.674Z,0
2019-03-13T02:56:20.631Z,0
2019-03-13T02:57:20.588Z,0
2019-03-13T02:58:20.551Z,0
2019-03-13T02:59:20.759Z,0
2019-03-13T03:00:20.826Z,0
2019-03-13T03:01:20.468Z,0
2019-03-13T03:02:20.428Z,0
2019-03-13T03:03:20.419Z,0
2019-03-13T03:04:20.403Z,0
2019-03-13T03:05:20.566Z,0
2019-03-13T03:06:20.324Z,0
2019-03-13T03:07:22.270Z,0
2019-03-13T03:08:20.291Z,0
2019-03-13T03:09:20.256Z,0
2019-03-13T03:10:20.211Z,0
2019-03-13T03:11:20.284Z,0
2019-03-13T03:12:20.147Z,0
2019-03-13T03:13:20.084Z,0
2019-03-13T03:14:20.093Z,0
2019-03-13T03:15:20.034Z,0
2019-03-13T03:16:20.022Z,0
2019-03-13T03:17:19.966Z,0
2019-03-13T03:18:19.986Z,0
2019-03-13T03:19:19.954Z,0
2019-03-13T03:20:19.724Z,0
2019-03-13T03:21:19.919Z,0
2019-03-13T03:22:19.806Z,0
2019-03-13T03:23:19.781Z,0
2019-03-13T03:24:19.757Z,0
2019-03-13T03:25:19.723Z,0
2019-03-13T03:26:19.691Z,0
2019-03-13T03:27:19.665Z,0
2019-03-13T03:28:19.788Z,0
2019-03-13T03:29:19.658Z,0
2019-03-13T03:30:19.771Z,0
2019-03-13T03:31:19.617Z,0
2019-03-13T03:32:19.542Z,0
2019-03-13T03:33:19.594Z,0
2019-03-13T03:34:19.470Z,0
2019-03-13T03:35:19.579Z,0
2019-03-13T03:36:19.456Z,0
2019-03-13T03:37:19.419Z,0
2019-03-13T03:38:19.318Z,0
2019-03-13T03:39:19.321Z,0
2019-03-13T03:40:24.757Z,0
2019-03-13T03:41:19.294Z,0
2019-03-13T03:42:19.190Z,0
2019-03-13T03:43:19.195Z,0
2019-03-13T03:44:19.162Z,0
2019-03-13T03:45:19.123Z,0
2019-03-13T03:46:19.069Z,0
2019-03-13T03:47:19.077Z,0
2019-03-13T03:48:19.018Z,0
2019-03-13T03:49:18.999Z,0
2019-03-13T03:50:19.323Z,0
2019-03-13T03:51:18.920Z,0
2019-03-13T03:52:19.043Z,0
2019-03-13T03:53:18.903Z,0
2019-03-13T03:54:18.621Z,0
2019-03-13T03:55:19.018Z,0
2019-03-13T03:56:18.782Z,0
2019-03-13T03:57:18.900Z,0
2019-03-13T03:58:18.717Z,0
2019-03-13T03:59:18.680Z,0
2019-03-13T04:00:18.759Z,0
2019-03-13T04:01:18.620Z,0
2019-03-13T04:02:18.603Z,0
2019-03-13T04:03:18.322Z,0
2019-03-13T04:04:18.539Z,0
2019-03-13T04:05:18.523Z,0
2019-03-13T04:06:18.459Z,0
2019-03-13T04:07:18.461Z,0
2019-03-13T04:08:18.166Z,0
2019-03-13T04:09:18.576Z,0
2019-03-13T04:10:18.446Z,0
2019-03-13T04:11:18.342Z,0
2019-03-13T04:12:18.281Z,0
2019-03-13T04:13:18.278Z,0
2019-03-13T04:14:18.260Z,0
2019-03-13T04:15:18.306Z,0
2019-03-13T04:16:18.233Z,0
2019-03-13T04:17:18.133Z,0
2019-03-13T04:18:18.110Z,0
2019-03-13T04:19:18.076Z,0
2019-03-13T04:20:18.089Z,0
2019-03-13T04:21:18.024Z,0
2019-03-13T04:22:17.976Z,0
2019-03-13T04:23:17.955Z,0
2019-03-13T04:24:17.926Z,0
2019-03-13T04:25:17.928Z,0
2019-03-13T04:26:22.105Z,0
2019-03-13T04:27:17.582Z,0
2019-03-13T04:28:17.850Z,0
2019-03-13T04:29:17.793Z,0
2019-03-13T04:30:17.741Z,0
2019-03-13T04:31:17.723Z,0
2019-03-13T04:32:17.712Z,0
2019-03-13T04:33:17.649Z,0
2019-03-13T04:34:17.610Z,0
2019-03-13T04:35:17.612Z,0
2019-03-13T04:36:17.569Z,0
2019-03-13T04:37:17.631Z,0
2019-03-13T04:38:17.623Z,0
2019-03-13T04:39:17.668Z,0
2019-03-13T04:40:17.433Z,0
2019-03-13T04:41:17.395Z,0
2019-03-13T04:42:17.365Z,0
2019-03-13T04:43:17.357Z,0
2019-03-13T04:44:17.309Z,0
2019-03-13T04:45:17.289Z,0
2019-03-13T04:46:17.261Z,0
2019-03-13T04:47:17.211Z,0
2019-03-13T04:48:17.191Z,0
2019-03-13T04:49:17.154Z,0
2019-03-13T04:50:16.907Z,0
2019-03-13T04:51:17.089Z,0
2019-03-13T04:52:17.054Z,0
2019-03-13T04:53:17.027Z,0
2019-03-13T04:54:17.017Z,0
2019-03-13T04:55:16.970Z,0
2019-03-13T04:56:16.936Z,0
2019-03-13T04:57:16.908Z,0
2019-03-13T04:58:16.875Z,0
2019-03-13T04:59:16.840Z,0
2019-03-13T05:00:16.588Z,0
2019-03-13T05:01:16.835Z,0
2019-03-13T05:02:16.758Z,0
2019-03-13T05:03:16.727Z,0
2019-03-13T05:04:16.729Z,0
2019-03-13T05:05:18.346Z,0
2019-03-13T05:06:16.669Z,0
2019-03-13T05:07:16.604Z,0
2019-03-13T05:08:16.586Z,0
2019-03-13T05:09:16.545Z,0
2019-03-13T05:10:16.516Z,0
2019-03-13T05:11:16.576Z,0
2019-03-13T05:12:16.696Z,0
2019-03-13T05:13:16.925Z,0
2019-03-13T05:14:16.393Z,0
2019-03-13T05:15:16.364Z,0
2019-03-13T05:16:16.336Z,0
2019-03-13T05:17:16.305Z,0
2019-03-13T05:18:16.365Z,0
2019-03-13T05:19:16.017Z,0
2019-03-13T05:20:18.627Z,0
2019-03-13T05:21:16.188Z,0
2019-03-13T05:22:16.234Z,0
2019-03-13T05:23:16.125Z,0
2019-03-13T05:24:15.944Z,0
2019-03-13T05:25:19.044Z,0
2019-03-13T05:26:16.132Z,0
2019-03-13T05:27:16.010Z,0
2019-03-13T05:28:15.751Z,0
2019-03-13T05:29:16.034Z,0
2019-03-13T05:30:15.915Z,0
2019-03-13T05:31:15.879Z,0
2019-03-13T05:32:15.853Z,0
2019-03-13T05:33:15.814Z,0
2019-03-13T05:34:15.793Z,0
2019-03-13T05:35:15.770Z,0
2019-03-13T05:36:19.027Z,0
2019-03-13T05:37:15.708Z,0
2019-03-13T05:38:15.671Z,0
2019-03-13T05:39:15.633Z,0
2019-03-13T05:40:15.623Z,0
2019-03-13T05:41:15.579Z,0
2019-03-13T05:42:15.555Z,0
2019-03-13T05:43:15.518Z,0
2019-03-13T05:44:15.523Z,0
2019-03-13T05:45:18.453Z,0
2019-03-13T05:46:15.427Z,0
2019-03-13T05:47:15.435Z,0
2019-03-13T05:48:15.365Z,0
2019-03-13T05:49:15.348Z,0
2019-03-13T05:50:15.309Z,5
2019-03-13T05:51:15.314Z,5
2019-03-13T05:52:15.270Z,5
2019-03-13T05:53:15.239Z,5
2019-03-13T05:54:15.195Z,5
2019-03-13T05:55:14.928Z,5
2019-03-13T05:56:15.128Z,5
2019-03-13T05:57:15.117Z,5
2019-03-13T05:58:14.836Z,10
2019-03-13T05:59:14.821Z,5
2019-03-13T06:00:14.770Z,10
2019-03-13T06:01:15.053Z,10
2019-03-13T06:02:14.944Z,10
2019-03-13T06:03:14.927Z,10
2019-03-13T06:04:14.898Z,15
2019-03-13T06:05:14.859Z,15
2019-03-13T06:06:14.824Z,15
2019-03-13T06:07:14.815Z,15
2019-03-13T06:08:14.787Z,15
2019-03-13T06:09:14.767Z,15
2019-03-13T06:10:14.767Z,20
2019-03-13T06:11:14.685Z,20
2019-03-13T06:12:14.645Z,20
2019-03-13T06:13:14.744Z,20
2019-03-13T06:14:14.703Z,20
2019-03-13T06:15:14.676Z,25
2019-03-13T06:16:14.523Z,25
2019-03-13T06:17:14.494Z,25
2019-03-13T06:18:16.967Z,25
2019-03-13T06:19:14.452Z,30
2019-03-13T06:20:17.536Z,30
2019-03-13T06:21:14.375Z,40
2019-03-13T06:22:14.346Z,35
2019-03-13T06:23:14.423Z,40
2019-03-13T06:24:14.284Z,50
2019-03-13T06:25:14.269Z,55
2019-03-13T06:26:14.534Z,45
2019-03-13T06:27:14.194Z,40
2019-03-13T06:28:14.172Z,50
2019-03-13T06:29:14.187Z,50
2019-03-13T06:30:14.815Z,50
2019-03-13T06:31:14.968Z,55
2019-03-13T06:32:14.053Z,55
2019-03-13T06:33:14.051Z,45
2019-03-13T06:34:16.286Z,45
2019-03-13T06:35:13.963Z,50
2019-03-13T06:36:13.986Z,55
2019-03-13T06:37:13.890Z,50
2019-03-13T06:38:13.961Z,60
2019-03-13T06:39:13.840Z,60
2019-03-13T06:40:13.569Z,55
2019-03-13T06:41:14.780Z,55
2019-03-13T06:42:13.511Z,50
2019-03-13T06:43:13.730Z,45
2019-03-13T06:44:13.693Z,60
2019-03-13T06:45:13.660Z,70
2019-03-13T06:46:13.611Z,65
2019-03-13T06:47:13.396Z,55
2019-03-13T06:48:13.340Z,55
2019-03-13T06:49:13.601Z,60
2019-03-13T06:50:14.391Z,70
2019-03-13T06:51:13.489Z,75
2019-03-13T06:52:13.455Z,85
2019-03-13T06:53:13.426Z,75
2019-03-13T06:54:13.435Z,65
2019-03-13T06:55:13.360Z,90
2019-03-13T06:56:13.333Z,105
2019-03-13T06:57:13.411Z,90
2019-03-13T06:58:13.363Z,85
2019-03-13T06:59:16.070Z,95
2019-03-13T07:00:13.224Z,100
2019-03-13T07:01:13.292Z,115
2019-03-13T07:02:13.170Z,125
2019-03-13T07:03:13.124Z,125
2019-03-13T07:04:13.097Z,140
2019-03-13T07:05:13.066Z,165
2019-03-13T07:06:13.045Z,160
2019-03-13T07:07:13.002Z,155
2019-03-13T07:08:12.977Z,140
2019-03-13T07:09:12.960Z,135
2019-03-13T07:10:13.046Z,170
2019-03-13T07:11:12.895Z,155
2019-03-13T07:12:12.858Z,110
2019-03-13T07:13:12.832Z,95
2019-03-13T07:14:12.852Z,120
2019-03-13T07:15:12.767Z,160
2019-03-13T07:16:12.735Z,165
2019-03-13T07:17:12.722Z,165
2019-03-13T07:18:12.709Z,120
2019-03-13T07:19:12.650Z,95
2019-03-13T07:20:12.613Z,80
2019-03-13T07:21:12.591Z,95
2019-03-13T07:22:12.565Z,130
2019-03-13T07:23:12.531Z,140
2019-03-13T07:24:12.498Z,120
2019-03-13T07:25:12.475Z,110
2019-03-13T07:26:12.448Z,130
2019-03-13T07:27:12.425Z,130
2019-03-13T07:28:12.391Z,135
2019-03-13T07:29:22.072Z,110
2019-03-13T07:30:13.540Z,105
2019-03-13T07:31:13.161Z,105
2019-03-13T07:32:12.263Z,160
2019-03-13T07:33:12.235Z,185
2019-03-13T07:34:12.209Z,180
2019-03-13T07:35:12.188Z,220
2019-03-13T07:36:12.282Z,210
2019-03-13T07:37:11.893Z,210
2019-03-13T07:38:12.121Z,200
2019-03-13T07:39:12.060Z,235
2019-03-13T07:40:12.064Z,310
2019-03-13T07:41:12.000Z,285
2019-03-13T07:42:11.993Z,290
2019-03-13T07:43:11.951Z,295
2019-03-13T07:44:11.907Z,250
2019-03-13T07:45:11.883Z,200
2019-03-13T07:46:11.842Z,230
2019-03-13T07:47:11.822Z,265
2019-03-13T07:48:11.789Z,325
2019-03-13T07:49:11.756Z,300
2019-03-13T07:50:11.490Z,260
2019-03-13T07:51:11.709Z,200
2019-03-13T07:52:11.677Z,185
2019-03-13T07:53:11.659Z,220
2019-03-13T07:54:11.624Z,260
2019-03-13T07:55:11.600Z,255
2019-03-13T07:56:11.371Z,230
2019-03-13T07:57:11.533Z,245
2019-03-13T07:58:11.498Z,185
2019-03-13T07:59:11.469Z,165
2019-03-13T08:00:11.721Z,175
2019-03-13T08:01:11.406Z,180
2019-03-13T08:02:11.208Z,205
2019-03-13T08:03:11.378Z,190
2019-03-13T08:04:14.616Z,205
2019-03-13T08:05:11.295Z,235
2019-03-13T08:06:11.018Z,275
2019-03-13T08:07:11.265Z,290
2019-03-13T08:08:11.202Z,205
2019-03-13T08:09:11.169Z,230
2019-03-13T08:10:11.144Z,245
2019-03-13T08:11:11.124Z,190
2019-03-13T08:12:11.078Z,190
2019-03-13T08:13:11.298Z,220
2019-03-13T08:14:12.572Z,205
2019-03-13T08:15:11.033Z,220
2019-03-13T08:16:10.962Z,225
2019-03-13T08:17:10.941Z,220
2019-03-13T08:18:10.908Z,180
2019-03-13T08:19:11.027Z,195
2019-03-13T08:20:10.853Z,210
2019-03-13T08:21:10.816Z,175
2019-03-13T08:22:10.575Z,200
2019-03-13T08:23:10.774Z,195
2019-03-13T08:24:10.728Z,205
2019-03-13T08:25:12.809Z,160
2019-03-13T08:26:10.232Z,135
2019-03-13T08:27:10.748Z,115
2019-03-13T08:28:10.617Z,125
2019-03-13T08:29:10.582Z,150
2019-03-13T08:30:10.563Z,160
2019-03-13T08:31:10.555Z,220
2019-03-13T08:32:10.511Z,255
2019-03-13T08:33:10.483Z,250
2019-03-13T08:34:10.226Z,290
2019-03-13T08:35:10.163Z,295
2019-03-13T08:36:10.368Z,290
2019-03-13T08:37:10.393Z,250
2019-03-13T08:38:10.069Z,230
2019-03-13T08:39:10.288Z,210
2019-03-13T08:40:10.257Z,175
2019-03-13T08:41:10.236Z,160
2019-03-13T08:42:10.916Z,160
2019-03-13T08:43:09.537Z,180
2019-03-13T08:44:10.233Z,170
2019-03-13T08:45:10.058Z,180
2019-03-13T08:46:10.399Z,220
2019-03-13T08:47:10.098Z,215
2019-03-13T08:48:10.100Z,225
2019-03-13T08:49:10.023Z,250
2019-03-13T08:50:10.186Z,295
2019-03-13T08:51:10.061Z,230
2019-03-13T08:52:09.793Z,240
2019-03-13T08:53:10.019Z,275
2019-03-13T08:54:09.854Z,315
2019-03-13T08:55:09.969Z,365
2019-03-13T08:56:09.778Z,325
2019-03-13T08:57:09.752Z,325
2019-03-13T08:58:09.735Z,355
2019-03-13T08:59:09.707Z,385
2019-03-13T09:00:09.977Z,310
2019-03-13T09:01:09.407Z,310
2019-03-13T09:02:09.635Z,325
2019-03-13T09:03:09.626Z,325
2019-03-13T09:04:09.563Z,390
2019-03-13T09:05:09.818Z,420
2019-03-13T09:06:09.859Z,490
2019-03-13T09:07:09.488Z,535
2019-03-13T09:08:09.438Z,575
2019-03-13T09:09:09.405Z,580
2019-03-13T09:10:09.403Z,465
2019-03-13T09:11:09.362Z,395
2019-03-13T09:12:09.342Z,365
2019-03-13T09:13:11.317Z,245
2019-03-13T09:14:09.266Z,235
2019-03-13T09:15:09.237Z,265
2019-03-13T09:16:09.222Z,260
2019-03-13T09:17:09.182Z,280
2019-03-13T09:18:09.157Z,280
2019-03-13T09:19:10.164Z,280
2019-03-13T09:20:09.105Z,290
2019-03-13T09:21:09.071Z,325
2019-03-13T09:22:09.058Z,300
2019-03-13T09:23:09.015Z,320
2019-03-13T09:24:08.987Z,260
2019-03-13T09:25:20.674Z,250
2019-03-13T09:26:08.940Z,250
2019-03-13T09:27:08.903Z,310
2019-03-13T09:28:08.876Z,280
2019-03-13T09:29:08.849Z,250
2019-03-13T09:30:08.827Z,235
2019-03-13T09:31:08.803Z,210
2019-03-13T09:32:08.763Z,225
2019-03-13T09:33:08.752Z,255
2019-03-13T09:34:08.768Z,235
2019-03-13T09:35:08.737Z,190
2019-03-13T09:36:08.742Z,195
2019-03-13T09:37:08.630Z,200
2019-03-13T09:38:08.597Z,225
2019-03-13T09:39:08.582Z,240
2019-03-13T09:40:08.530Z,230
2019-03-13T09:41:08.497Z,225
2019-03-13T09:42:08.484Z,220
2019-03-13T09:43:08.556Z,230
2019-03-13T09:44:09.411Z,225
2019-03-13T09:45:08.387Z,235
2019-03-13T09:46:07.882Z,245
2019-03-13T09:47:08.347Z,270
2019-03-13T09:48:08.309Z,305
2019-03-13T09:49:08.326Z,285
2019-03-13T09:50:08.013Z,280
2019-03-13T09:51:08.222Z,315
2019-03-13T09:52:08.216Z,325
2019-03-13T09:53:08.159Z,325
2019-03-13T09:54:08.137Z,295
2019-03-13T09:55:11.556Z,280
2019-03-13T09:56:08.081Z,280
2019-03-13T09:57:08.132Z,230
2019-03-13T09:58:08.022Z,210
2019-03-13T09:59:07.826Z,200
2019-03-13T10:00:07.775Z,170
2019-03-13T10:01:07.926Z,160
2019-03-13T10:02:07.920Z,185
2019-03-13T10:03:07.870Z,190
2019-03-13T10:04:07.897Z,220
2019-03-13T10:05:07.821Z,240
2019-03-13T10:06:07.781Z,250
2019-03-13T10:07:07.751Z,260
2019-03-13T10:08:07.732Z,265
2019-03-13T10:09:07.695Z,290
2019-03-13T10:10:07.670Z,290
2019-03-13T10:11:07.627Z,265
2019-03-13T10:12:07.709Z,240
2019-03-13T10:13:07.696Z,220
2019-03-13T10:14:07.309Z,230
2019-03-13T10:15:07.622Z,235
2019-03-13T10:16:07.486Z,230
2019-03-13T10:17:20.082Z,225
2019-03-13T10:18:07.432Z,210
2019-03-13T10:19:07.424Z,210
2019-03-13T10:20:07.496Z,190
2019-03-13T10:21:07.345Z,200
2019-03-13T10:22:07.310Z,240
2019-03-13T10:23:07.279Z,250
2019-03-13T10:24:07.246Z,240
2019-03-13T10:25:07.446Z,260
2019-03-13T10:26:06.952Z,310
2019-03-13T10:27:07.157Z,295
2019-03-13T10:28:07.126Z,340
2019-03-13T10:29:07.089Z,370
2019-03-13T10:30:07.086Z,310
2019-03-13T10:31:07.059Z,345
2019-03-13T10:32:07.031Z,435
2019-03-13T10:33:06.978Z,490
2019-03-13T10:34:06.948Z,470
2019-03-13T10:35:06.941Z,415
2019-03-13T10:36:06.885Z,410
2019-03-13T10:37:07.266Z,585
2019-03-13T10:38:20.080Z,785
2019-03-13T10:39:06.801Z,730
2019-03-13T10:40:06.779Z,735
2019-03-13T10:41:06.502Z,665
2019-03-13T10:42:08.326Z,650
2019-03-13T10:43:06.455Z,690
2019-03-13T10:44:06.700Z,615
2019-03-13T10:45:06.622Z,655
2019-03-13T10:46:06.818Z,680
2019-03-13T10:47:06.585Z,775
2019-03-13T10:48:06.563Z,755
2019-03-13T10:49:06.525Z,630
2019-03-13T10:50:06.506Z,530
2019-03-13T10:51:06.471Z,410
2019-03-13T10:52:06.678Z,345
2019-03-13T10:53:06.404Z,355
2019-03-13T10:54:06.369Z,405
2019-03-13T10:55:06.345Z,335
2019-03-13T10:56:06.311Z,435
2019-03-13T10:57:06.350Z,475
2019-03-13T10:58:06.261Z,455
2019-03-13T10:59:06.240Z,360
2019-03-13T11:00:06.225Z,330
2019-03-13T11:01:06.179Z,345
2019-03-13T11:02:06.255Z,360
2019-03-13T11:03:06.259Z,375
2019-03-13T11:04:06.110Z,380
2019-03-13T11:05:06.060Z,430
2019-03-13T11:06:06.037Z,380
2019-03-13T11:07:06.000Z,370
2019-03-13T11:08:06.066Z,380
2019-03-13T11:09:05.951Z,340
2019-03-13T11:10:05.918Z,325
2019-03-13T11:11:05.891Z,310
2019-03-13T11:12:05.863Z,315
2019-03-13T11:13:05.833Z,310
2019-03-13T11:14:19.578Z,355
2019-03-13T11:15:05.891Z,315
2019-03-13T11:16:05.757Z,330
2019-03-13T11:17:05.525Z,370
2019-03-13T11:18:05.695Z,345
2019-03-13T11:19:05.775Z,380
2019-03-13T11:20:05.648Z,365
2019-03-13T11:21:05.606Z,495
2019-03-13T11:22:05.571Z,565
2019-03-13T11:23:05.537Z,625
2019-03-13T11:24:08.113Z,585
2019-03-13T11:25:05.490Z,405
2019-03-13T11:26:05.457Z,335
2019-03-13T11:27:05.513Z,290
2019-03-13T11:28:05.467Z,365
2019-03-13T11:29:05.445Z,375
2019-03-13T11:30:05.385Z,425
2019-03-13T11:31:05.348Z,410
2019-03-13T11:32:05.292Z,345
2019-03-13T11:33:05.280Z,320
2019-03-13T11:34:05.227Z,355
2019-03-13T11:35:05.315Z,350
2019-03-13T11:36:05.195Z,305
2019-03-13T11:37:05.253Z,385
2019-03-13T11:38:04.874Z,360
2019-03-13T11:39:05.093Z,370
2019-03-13T11:40:05.202Z,355
2019-03-13T11:41:05.032Z,295
2019-03-13T11:42:05.001Z,260
2019-03-13T11:43:04.979Z,295
2019-03-13T11:44:04.959Z,355
2019-03-13T11:45:05.099Z,410
2019-03-13T11:46:04.893Z,385
2019-03-13T11:47:04.860Z,320
2019-03-13T11:48:04.823Z,310
2019-03-13T11:49:04.811Z,235
2019-03-13T11:50:05.079Z,225
2019-03-13T11:51:04.754Z,220
2019-03-13T11:52:04.785Z,265
2019-03-13T11:53:04.701Z,320
2019-03-13T11:54:04.676Z,350
2019-03-13T11:55:04.635Z,360
2019-03-13T11:56:04.611Z,330
2019-03-13T11:57:04.670Z,310
2019-03-13T11:58:04.547Z,270
2019-03-13T11:59:04.608Z,270
2019-03-13T12:00:05.420Z,240
2019-03-13T12:01:04.476Z,195
2019-03-13T12:02:04.429Z,235
2019-03-13T12:03:04.405Z,230
2019-03-13T12:04:04.368Z,200
2019-03-13T12:05:04.502Z,195
2019-03-13T12:06:04.323Z,220
2019-03-13T12:07:04.310Z,225
2019-03-13T12:08:04.316Z,245
2019-03-13T12:09:06.619Z,310
2019-03-13T12:10:04.198Z,280
2019-03-13T12:11:04.200Z,350
2019-03-13T12:12:04.192Z,360
2019-03-13T12:13:05.002Z,325
2019-03-13T12:14:04.094Z,300
2019-03-13T12:15:04.057Z,380
2019-03-13T12:16:04.027Z,380
2019-03-13T12:17:04.035Z,370
2019-03-13T12:18:03.999Z,315
2019-03-13T12:19:04.020Z,325
2019-03-13T12:20:03.918Z,300
2019-03-13T12:21:06.592Z,280
2019-03-13T12:22:03.874Z,250
2019-03-13T12:23:03.656Z,220
2019-03-13T12:24:03.815Z,220
2019-03-13T12:25:03.777Z,215
2019-03-13T12:26:05.756Z,230
2019-03-13T12:27:03.718Z,215
2019-03-13T12:28:03.758Z,260
2019-03-13T12:29:03.652Z,310
2019-03-13T12:30:03.392Z,300
2019-03-13T12:31:03.609Z,330
2019-03-13T12:32:03.574Z,285
2019-03-13T12:33:03.539Z,300
2019-03-13T12:34:03.421Z,280
2019-03-13T12:35:03.497Z,290
2019-03-13T12:36:03.458Z,355
2019-03-13T12:37:03.525Z,305
2019-03-13T12:38:03.412Z,230
2019-03-13T12:39:03.386Z,195
2019-03-13T12:40:03.342Z,165
2019-03-13T12:41:03.414Z,120
2019-03-13T12:42:02.814Z,100
2019-03-13T12:43:03.336Z,110
2019-03-13T12:44:03.309Z,130
2019-03-13T12:45:03.195Z,150
2019-03-13T12:46:03.178Z,150
2019-03-13T12:47:03.151Z,175
2019-03-13T12:48:15.799Z,190
2019-03-13T12:49:03.089Z,235
2019-03-13T12:50:03.094Z,260
2019-03-13T12:51:03.092Z,350
2019-03-13T12:52:04.255Z,360
2019-03-13T12:53:02.997Z,330
2019-03-13T12:54:02.939Z,295
2019-03-13T12:55:05.191Z,225
2019-03-13T12:56:02.878Z,260
2019-03-13T12:57:02.854Z,285
2019-03-13T12:58:02.828Z,320
2019-03-13T12:59:02.815Z,325
2019-03-13T13:00:02.774Z,280
2019-03-13T13:01:02.745Z,300
2019-03-13T13:02:02.709Z,340
2019-03-13T13:03:04.374Z,290
2019-03-13T13:04:02.674Z,310
2019-03-13T13:05:02.839Z,335
2019-03-13T13:06:02.607Z,370
2019-03-13T13:07:03.256Z,365
2019-03-13T13:08:02.538Z,365
2019-03-13T13:09:02.271Z,355
2019-03-13T13:10:02.747Z,330
2019-03-13T13:11:02.440Z,350
2019-03-13T13:12:02.470Z,280
2019-03-13T13:13:02.385Z,290
2019-03-13T13:14:02.362Z,295
2019-03-13T13:15:02.328Z,295
2019-03-13T13:16:02.409Z,260
2019-03-13T13:17:02.281Z,290
2019-03-13T13:18:02.238Z,220
2019-03-13T13:19:02.238Z,185
2019-03-13T13:20:02.177Z,165
2019-03-13T13:21:02.145Z,165
2019-03-13T13:22:02.128Z,145
2019-03-13T13:23:02.203Z,140
2019-03-13T13:24:02.076Z,150
2019-03-13T13:25:02.041Z,160
2019-03-13T13:26:02.010Z,160
2019-03-13T13:27:01.984Z,180
2019-03-13T13:28:01.943Z,210
2019-03-13T13:29:01.918Z,195
2019-03-13T13:30:01.889Z,235
2019-03-13T13:31:01.906Z,200
2019-03-13T13:32:04.821Z,200
2019-03-13T13:33:01.600Z,215
2019-03-13T13:34:01.794Z,220
2019-03-13T13:35:01.945Z,165
2019-03-13T13:36:01.709Z,165
2019-03-13T13:37:01.694Z,140
2019-03-13T13:38:01.654Z,140
2019-03-13T13:39:01.780Z,140
2019-03-13T13:40:01.717Z,165
2019-03-13T13:41:01.513Z,160
2019-03-13T13:42:01.530Z,140
2019-03-13T13:43:01.814Z,180
2019-03-13T13:44:01.485Z,185
2019-03-13T13:45:01.446Z,150
2019-03-13T13:46:01.443Z,195
2019-03-13T13:47:01.397Z,180
2019-03-13T13:48:01.355Z,165
2019-03-13T13:49:01.348Z,195
2019-03-13T13:50:09.224Z,210
2019-03-13T13:51:01.275Z,215
2019-03-13T13:52:01.230Z,190
2019-03-13T13:53:01.263Z,175
2019-03-13T13:54:02.951Z,170
2019-03-13T13:55:01.160Z,175
2019-03-13T13:56:01.112Z,205
2019-03-13T13:57:01.083Z,250
2019-03-13T13:58:01.056Z,300
2019-03-13T13:59:01.024Z,365
2019-03-13T14:00:03.743Z,500
2019-03-13T14:01:00.965Z,490
2019-03-13T14:02:00.711Z,505
2019-03-13T14:03:00.699Z,400
2019-03-13T14:04:00.882Z,240
2019-03-13T14:05:00.853Z,175
2019-03-13T14:06:00.868Z,190
2019-03-13T14:07:00.808Z,190
2019-03-13T14:08:00.765Z,200
2019-03-13T14:09:00.729Z,270
2019-03-13T14:10:00.698Z,265
2019-03-13T14:11:01.878Z,235
2019-03-13T14:12:00.682Z,280
2019-03-13T14:13:02.088Z,265